createdAt,value
2023-02-14T00:01:28.567Z,15.48
2023-02-14T00:04:15.540Z,14.63
2023-02-14T00:07:01.220Z,16.00
2023-02-14T00:09:46.152Z,15.60
2023-02-14T00:12:31.549Z,13.93
2023-02-14T00:15:22.632Z,14.50
2023-02-14T00:18:07.630Z,14.13
2023-02-14T00:20:52.872Z,13.73
2023-02-14T00:23:38.404Z,15.48
2023-02-14T00:26:23.754Z,12.13
2023-02-14T00:29:12.005Z,12.60
2023-02-14T00:31:57.615Z,13.25
2023-02-14T00:34:43.031Z,16.58
2023-02-14T00:37:28.450Z,13.82
2023-02-14T00:40:15.913Z,11.63
2023-02-14T00:43:01.195Z,15.57
2023-02-14T00:45:46.656Z,14.70
2023-02-14T00:48:32.010Z,17.38
2023-02-14T00:51:18.478Z,12.38
2023-02-14T00:54:03.990Z,16.77
2023-02-14T00:56:49.330Z,14.27
2023-02-14T00:59:34.671Z,16.52
2023-02-14T01:02:19.968Z,13.82
2023-02-14T01:05:05.778Z,15.10
2023-02-14T01:07:50.812Z,13.75
2023-02-14T01:10:37.689Z,14.48
2023-02-14T01:13:23.609Z,13.63
2023-02-14T01:16:11.802Z,16.23
2023-02-14T01:19:00.120Z,14.52
2023-02-14T01:21:45.318Z,15.93
2023-02-14T01:24:30.633Z,11.93
2023-02-14T01:27:15.972Z,12.25
2023-02-14T01:30:01.401Z,13.88
2023-02-14T01:32:46.757Z,13.55
2023-02-14T01:35:32.329Z,13.48
2023-02-14T01:38:17.597Z,12.80
2023-02-14T01:41:03.165Z,13.23
2023-02-14T01:43:54.428Z,13.52
2023-02-14T01:46:40.861Z,16.23
2023-02-14T01:49:52.764Z,14.20
2023-02-14T01:52:44.932Z,14.02
2023-02-14T01:55:37.935Z,13.85
2023-02-14T01:58:26.383Z,13.40
2023-02-14T02:01:16.506Z,15.00
2023-02-14T02:04:10.275Z,13.90
2023-02-14T02:06:59.756Z,15.73
2023-02-14T02:09:54.449Z,15.32
2023-02-14T02:12:40.277Z,16.27
2023-02-14T02:15:27.621Z,17.88
2023-02-14T02:18:18.626Z,17.52
2023-02-14T02:21:27.852Z,18.67
2023-02-14T02:24:18.512Z,21.30
2023-02-14T02:27:21.851Z,22.95
2023-02-14T02:30:34.494Z,19.90
2023-02-14T02:33:37.965Z,22.05
2023-02-14T02:39:44.771Z,21.38
2023-02-14T02:42:48.789Z,19.08
2023-02-14T02:46:06.114Z,21.25
2023-02-14T02:49:06.621Z,26.48
2023-02-14T02:52:14.264Z,21.65
2023-02-14T02:55:06.253Z,26.67
2023-02-14T02:57:53.445Z,28.77
2023-02-14T03:00:39.445Z,30.10
2023-02-14T03:03:45.419Z,26.38
2023-02-14T03:06:31.831Z,24.60
2023-02-14T03:09:20.143Z,22.02
2023-02-14T03:12:42.738Z,22.63
2023-02-14T03:15:27.811Z,23.67
2023-02-14T03:19:00.817Z,20.70
2023-02-14T03:22:05.141Z,18.52
2023-02-14T03:25:03.016Z,17.10
2023-02-14T03:27:57.675Z,14.70
2023-02-14T03:30:59.519Z,16.02
2023-02-14T03:33:57.979Z,17.25
2023-02-14T03:36:56.775Z,17.35
2023-02-14T03:40:00.022Z,24.80
2023-02-14T03:45:40.930Z,23.33
2023-02-14T03:48:28.445Z,22.23
2023-02-14T03:51:15.965Z,27.35
2023-02-14T03:54:03.913Z,23.00
2023-02-14T03:57:00.224Z,24.48
2023-02-14T03:59:45.361Z,32.20
2023-02-14T04:02:46.630Z,30.23
2023-02-14T04:05:31.882Z,26.15
2023-02-14T04:08:22.519Z,28.60
2023-02-14T04:11:07.622Z,27.67
2023-02-14T04:13:53.059Z,31.85
2023-02-14T04:16:57.541Z,31.05
2023-02-14T04:19:42.832Z,29.52
2023-02-14T04:22:28.238Z,26.92
2023-02-14T04:25:14.484Z,26.73
2023-02-14T04:27:59.696Z,28.35
2023-02-14T04:30:45.008Z,30.02
2023-02-14T04:33:30.827Z,32.28
2023-02-14T04:36:16.175Z,29.48
2023-02-14T04:39:01.505Z,29.85
2023-02-14T04:41:46.823Z,26.95
2023-02-14T04:44:34.018Z,25.02
2023-02-14T04:47:19.357Z,25.40
2023-02-14T04:50:05.527Z,33.67
2023-02-14T04:52:50.892Z,97.20
2023-02-14T04:55:36.304Z,37.13
2023-02-14T04:58:21.815Z,33.00
2023-02-14T05:01:07.162Z,31.13
2023-02-14T05:03:52.540Z,24.77
2023-02-14T05:06:37.836Z,28.42
2023-02-14T05:09:23.390Z,29.27
2023-02-14T05:12:08.831Z,32.60
2023-02-14T05:14:54.235Z,33.42
2023-02-14T05:17:39.726Z,32.22
2023-02-14T05:20:24.818Z,33.70
2023-02-14T05:23:13.688Z,29.67
2023-02-14T05:25:59.298Z,27.17
2023-02-14T05:28:44.674Z,27.63
2023-02-14T05:31:30.262Z,27.45
2023-02-14T05:34:15.602Z,28.27
2023-02-14T05:37:02.447Z,28.77
2023-02-14T05:39:47.840Z,35.22
2023-02-14T05:42:33.246Z,27.45
2023-02-14T05:45:19.178Z,23.42
2023-02-14T05:48:06.059Z,29.10
2023-02-14T05:50:51.345Z,31.80
2023-02-14T05:53:36.989Z,24.35
2023-02-14T05:56:22.238Z,25.98
2023-02-14T05:59:07.618Z,24.65
2023-02-14T06:01:52.999Z,25.98
2023-02-14T06:04:38.177Z,21.90
2023-02-14T06:07:23.746Z,22.27
2023-02-14T06:10:10.062Z,23.17
2023-02-14T06:12:55.657Z,20.38
2023-02-14T06:15:41.204Z,18.58
2023-02-14T06:18:29.493Z,14.43
2023-02-14T06:21:14.566Z,17.38
2023-02-14T06:23:59.788Z,20.67
2023-02-14T06:26:45.153Z,14.77
2023-02-14T06:29:30.694Z,18.23
2023-02-14T06:32:16.235Z,19.90
2023-02-14T06:35:03.376Z,15.13
2023-02-14T06:37:48.706Z,18.00
2023-02-14T06:40:34.143Z,16.30
2023-02-14T06:43:19.452Z,17.00
2023-02-14T06:46:04.912Z,15.60
2023-02-14T06:48:50.266Z,17.50
2023-02-14T06:51:35.617Z,18.23
2023-02-14T06:54:20.932Z,19.48
2023-02-14T06:57:06.466Z,17.05
2023-02-14T06:59:51.675Z,18.25
2023-02-14T07:02:37.037Z,20.50
2023-02-14T07:05:22.325Z,21.50
2023-02-14T07:08:08.169Z,16.25
2023-02-14T07:10:58.232Z,16.00
2023-02-14T07:13:44.173Z,15.02
2023-02-14T07:16:29.349Z,17.60
2023-02-14T07:19:14.837Z,18.48
2023-02-14T07:22:00.768Z,19.48
2023-02-14T07:24:46.252Z,19.88
2023-02-14T07:27:31.723Z,16.17
2023-02-14T07:30:17.043Z,18.13
2023-02-14T07:33:02.413Z,18.23
2023-02-14T07:35:47.610Z,16.33
2023-02-14T07:38:33.269Z,14.18
2023-02-14T07:41:18.963Z,17.20
2023-02-14T07:44:04.502Z,14.45
2023-02-14T07:46:49.854Z,16.65
2023-02-14T07:49:35.926Z,14.55
2023-02-14T07:52:21.199Z,14.50
2023-02-14T07:55:07.498Z,15.65
2023-02-14T07:57:52.883Z,13.27
2023-02-14T08:00:38.360Z,14.27
2023-02-14T08:03:23.752Z,15.65
2023-02-14T08:06:09.952Z,13.82
2023-02-14T08:08:55.124Z,15.10
2023-02-14T08:11:59.063Z,19.05
2023-02-14T08:14:44.630Z,17.90
2023-02-14T08:17:30.141Z,16.58
2023-02-14T08:20:15.678Z,14.73
2023-02-14T08:23:01.034Z,14.57
2023-02-14T08:25:50.532Z,15.25
2023-02-14T08:28:36.104Z,15.63
2023-02-14T08:31:35.015Z,17.13
2023-02-14T08:34:21.053Z,16.65
2023-02-14T08:37:06.791Z,14.73
2023-02-14T08:39:51.778Z,17.35
2023-02-14T08:42:37.119Z,17.15
2023-02-14T08:45:22.808Z,17.08
2023-02-14T08:48:10.849Z,16.92
2023-02-14T08:50:55.951Z,14.30
2023-02-14T08:53:41.701Z,19.45
2023-02-14T08:56:27.082Z,19.05
2023-02-14T08:59:12.388Z,16.05
2023-02-14T09:01:57.818Z,13.90
2023-02-14T09:04:43.241Z,15.98
2023-02-14T09:07:28.638Z,20.95
2023-02-14T09:10:14.182Z,19.45
2023-02-14T09:12:59.511Z,20.48
2023-02-14T09:15:44.810Z,16.75
2023-02-14T09:18:30.223Z,24.45
2023-02-14T09:21:18.564Z,20.70
2023-02-14T09:24:04.060Z,21.67
2023-02-14T09:26:49.442Z,21.63
2023-02-14T09:29:35.173Z,26.05
2023-02-14T09:32:20.626Z,26.80
2023-02-14T09:35:06.894Z,25.13
2023-02-14T09:37:52.031Z,23.67
2023-02-14T09:40:37.597Z,19.90
2023-02-14T09:43:32.439Z,29.30
2023-02-14T09:46:18.763Z,26.83
2023-02-14T09:49:04.509Z,21.88
2023-02-14T09:51:52.555Z,19.95
2023-02-14T09:54:38.012Z,22.17
2023-02-14T09:57:34.493Z,24.35
2023-02-14T10:00:39.918Z,24.30
2023-02-14T10:03:51.004Z,30.92
2023-02-14T10:06:45.297Z,20.08
2023-02-14T10:09:54.385Z,18.92
2023-02-14T10:12:45.999Z,20.98
2023-02-14T10:15:39.858Z,21.20
2023-02-14T10:18:51.519Z,18.20
2023-02-14T10:21:43.739Z,22.98
2023-02-14T10:24:40.179Z,19.30
2023-02-14T10:27:42.277Z,21.15
2023-02-14T10:30:33.360Z,17.35
2023-02-14T10:33:22.645Z,20.70
2023-02-14T10:36:34.985Z,17.50
2023-02-14T10:39:54.925Z,18.37
2023-02-14T10:42:43.380Z,21.92
2023-02-14T10:45:53.916Z,19.80
2023-02-14T10:49:02.595Z,18.10
2023-02-14T10:52:14.017Z,19.77
2023-02-14T10:55:05.688Z,24.40
2023-02-14T10:57:54.857Z,17.95
2023-02-14T11:01:03.729Z,16.10
2023-02-14T11:04:04.221Z,16.95
2023-02-14T11:06:50.324Z,17.23
2023-02-14T11:09:35.376Z,17.20
2023-02-14T11:12:39.779Z,17.10
2023-02-14T11:15:30.692Z,16.98
2023-02-14T11:18:24.687Z,16.23
2023-02-14T11:21:13.000Z,15.77
2023-02-14T11:23:58.495Z,19.42
2023-02-14T11:26:50.039Z,16.55
2023-02-14T11:29:41.362Z,15.95
2023-02-14T11:32:29.541Z,17.05
2023-02-14T11:35:24.124Z,19.27
2023-02-14T11:38:34.712Z,18.23
2023-02-14T11:41:20.116Z,22.58
2023-02-14T11:44:22.128Z,22.23
2023-02-14T11:47:27.750Z,19.95
2023-02-14T11:50:25.895Z,16.00
2023-02-14T11:53:13.476Z,21.15
2023-02-14T11:56:00.704Z,14.98
2023-02-14T11:59:04.043Z,17.20
2023-02-14T12:01:50.948Z,17.75
2023-02-14T12:04:46.142Z,17.95
2023-02-14T12:07:39.130Z,14.50
2023-02-14T12:10:26.845Z,13.98
2023-02-14T12:13:12.123Z,17.08
2023-02-14T12:15:58.810Z,16.40
2023-02-14T12:19:12.880Z,17.77
2023-02-14T12:22:02.760Z,15.05
2023-02-14T12:25:09.964Z,13.82
2023-02-14T12:28:09.603Z,18.05
2023-02-14T12:30:54.940Z,16.52
2023-02-14T12:33:40.996Z,13.07
2023-02-14T12:37:03.098Z,16.60
2023-02-14T12:40:19.611Z,15.65
2023-02-14T12:43:45.122Z,15.55
2023-02-14T12:46:51.843Z,15.88
2023-02-14T12:49:57.796Z,15.65
2023-02-14T12:53:01.198Z,11.20
2023-02-14T12:56:21.225Z,14.40
2023-02-14T12:59:41.814Z,16.67
2023-02-14T13:02:54.542Z,14.40
2023-02-14T13:06:02.039Z,13.80
2023-02-14T13:09:12.013Z,13.65
2023-02-14T13:12:31.166Z,14.73
2023-02-14T13:15:30.752Z,14.70
2023-02-14T13:18:34.758Z,19.13
2023-02-14T13:21:27.575Z,13.73
2023-02-14T13:24:18.491Z,14.73
2023-02-14T13:27:08.436Z,13.45
2023-02-14T13:30:01.021Z,16.00
2023-02-14T13:32:48.437Z,15.50
2023-02-14T13:35:34.400Z,14.13
2023-02-14T13:38:20.571Z,16.65
2023-02-14T13:41:09.387Z,14.35
2023-02-14T13:44:00.043Z,14.23
2023-02-14T13:46:48.692Z,13.13
2023-02-14T13:49:37.446Z,15.85
2023-02-14T13:52:43.380Z,11.60
2023-02-14T13:55:42.662Z,11.82
2023-02-14T13:58:28.509Z,13.77
2023-02-14T14:01:34.052Z,13.05
2023-02-14T14:04:28.588Z,13.98
2023-02-14T14:07:18.607Z,9.70
2023-02-14T14:10:05.358Z,17.50
2023-02-14T14:12:52.053Z,18.17
2023-02-14T14:15:37.513Z,18.25
2023-02-14T14:18:29.292Z,17.13
2023-02-14T14:21:29.575Z,20.02
2023-02-14T14:24:40.766Z,20.40
2023-02-14T14:27:34.426Z,18.05
2023-02-14T14:30:25.416Z,14.70
2023-02-14T14:33:23.435Z,17.38
2023-02-14T14:36:12.275Z,14.73
2023-02-14T14:38:57.252Z,16.67
2023-02-14T14:41:43.590Z,14.65
2023-02-14T14:44:28.704Z,16.45
2023-02-14T14:47:24.379Z,20.27
2023-02-14T14:50:20.628Z,18.63
2023-02-14T14:53:11.576Z,18.80
2023-02-14T14:55:57.305Z,19.85
2023-02-14T14:58:42.631Z,18.52
2023-02-14T15:01:36.852Z,18.58
2023-02-14T15:04:28.727Z,24.10
2023-02-14T15:07:34.284Z,19.52
2023-02-14T15:10:29.776Z,19.63
2023-02-14T15:13:33.813Z,19.15
2023-02-14T15:16:24.049Z,17.48
2023-02-14T15:19:34.299Z,20.17
2023-02-14T15:22:27.017Z,20.10
2023-02-14T15:25:26.297Z,20.95
2023-02-14T15:28:26.997Z,18.05
2023-02-14T15:31:12.741Z,18.55
2023-02-14T15:34:00.094Z,26.77
2023-02-14T15:36:53.842Z,23.33
2023-02-14T15:39:52.482Z,17.88
2023-02-14T15:42:40.876Z,19.70
2023-02-14T15:45:27.676Z,16.88
2023-02-14T15:48:20.878Z,17.85
2023-02-14T15:51:06.789Z,21.48
2023-02-14T15:53:53.799Z,23.45
2023-02-14T15:56:48.820Z,21.83
2023-02-14T15:59:35.392Z,18.63
2023-02-14T16:02:33.277Z,17.05
2023-02-14T16:05:24.631Z,20.05
2023-02-14T16:08:35.379Z,23.42
2023-02-14T16:11:37.952Z,23.33
2023-02-14T16:14:37.202Z,18.55
2023-02-14T16:17:35.564Z,21.65
2023-02-14T16:20:23.589Z,23.45
2023-02-14T16:23:29.389Z,22.42
2023-02-14T16:26:14.911Z,22.80
2023-02-14T16:29:03.784Z,20.60
2023-02-14T16:35:00.764Z,15.55
2023-02-14T16:37:47.485Z,17.13
2023-02-14T16:40:33.456Z,28.13
2023-02-14T16:43:20.438Z,17.10
2023-02-14T16:46:05.508Z,14.57
2023-02-14T16:48:52.483Z,12.73
2023-02-14T16:51:40.785Z,13.95
2023-02-14T16:54:26.940Z,13.00
2023-02-14T16:57:28.102Z,12.95
2023-02-14T17:00:14.250Z,15.38
2023-02-14T17:03:11.252Z,11.95
2023-02-14T17:05:58.005Z,14.63
2023-02-14T17:08:43.967Z,11.40
2023-02-14T17:11:32.514Z,15.55
2023-02-14T17:14:22.155Z,13.70
2023-02-14T17:17:07.633Z,14.15
2023-02-14T17:19:53.219Z,12.57
2023-02-14T17:22:39.032Z,14.27
2023-02-14T17:25:24.101Z,13.50
2023-02-14T17:28:10.755Z,12.95
2023-02-14T17:30:57.031Z,13.32
2023-02-14T17:33:43.383Z,13.60
2023-02-14T17:36:30.082Z,18.63
2023-02-14T17:39:18.221Z,16.77
2023-02-14T17:42:03.858Z,15.57
2023-02-14T17:44:49.128Z,19.40
2023-02-14T17:47:34.822Z,23.98
2023-02-14T17:50:20.099Z,14.32
2023-02-14T17:53:05.612Z,16.25
2023-02-14T17:55:51.047Z,19.08
2023-02-14T17:58:36.548Z,23.55
2023-02-14T18:01:25.226Z,18.70
2023-02-14T18:04:10.503Z,17.20
2023-02-14T18:06:55.964Z,23.40
2023-02-14T18:09:41.405Z,23.90
2023-02-14T18:12:26.830Z,16.88
2023-02-14T18:15:12.276Z,16.35
2023-02-14T18:17:57.595Z,17.40
2023-02-14T18:20:43.088Z,14.93
2023-02-14T18:23:30.603Z,12.13
2023-02-14T18:26:18.266Z,15.13
2023-02-14T18:29:06.723Z,13.73
2023-02-14T18:31:52.230Z,12.57
2023-02-14T18:34:38.248Z,12.73
2023-02-14T18:37:23.375Z,13.93
2023-02-14T18:40:11.211Z,13.25
2023-02-14T18:42:56.329Z,13.38
2023-02-14T18:45:41.741Z,13.48
2023-02-14T18:48:26.996Z,14.27
2023-02-14T18:51:18.622Z,13.10
2023-02-14T18:54:04.985Z,13.90
2023-02-14T18:56:50.688Z,14.18
2023-02-14T18:59:35.699Z,12.38
2023-02-14T19:02:21.935Z,12.15
2023-02-14T19:05:08.185Z,12.27
2023-02-14T19:07:55.062Z,13.05
2023-02-14T19:10:40.497Z,11.65
2023-02-14T19:13:29.106Z,12.85
2023-02-14T19:16:18.223Z,11.05
2023-02-14T19:19:04.597Z,12.32
2023-02-14T19:21:50.806Z,15.25
2023-02-14T19:24:36.232Z,11.90
2023-02-14T19:27:22.372Z,14.82
2023-02-14T19:30:08.077Z,12.32
2023-02-14T19:32:53.260Z,10.27
2023-02-14T19:35:38.770Z,12.75
2023-02-14T19:38:24.198Z,8.45
2023-02-14T19:41:26.104Z,9.85
2023-02-14T19:44:13.807Z,13.10
2023-02-14T19:47:01.886Z,14.52
2023-02-14T19:49:49.745Z,12.65
2023-02-14T19:52:35.092Z,12.13
2023-02-14T19:55:22.734Z,9.60
2023-02-14T19:58:08.016Z,12.32
2023-02-14T20:00:59.657Z,9.23
2023-02-14T20:03:44.981Z,15.18
2023-02-14T20:06:30.702Z,15.88
2023-02-14T20:09:17.518Z,11.98
2023-02-14T20:12:03.441Z,13.48
2023-02-14T20:14:51.764Z,14.13
2023-02-14T20:17:37.503Z,17.50
2023-02-14T20:20:23.427Z,17.65
2023-02-14T20:23:08.729Z,20.80
2023-02-14T20:25:54.154Z,18.10
2023-02-14T20:28:39.457Z,13.25
2023-02-14T20:31:24.916Z,11.45
2023-02-14T20:34:11.041Z,13.50
2023-02-14T20:36:58.552Z,17.75
2023-02-14T20:39:43.877Z,15.93
2023-02-14T20:42:29.208Z,15.80
2023-02-14T20:45:14.650Z,15.57
2023-02-14T20:48:04.014Z,20.40
2023-02-14T20:50:49.418Z,19.08
2023-02-14T20:53:34.641Z,22.45
2023-02-14T20:56:20.962Z,18.02
2023-02-14T20:59:07.234Z,14.45
2023-02-14T21:01:53.738Z,16.25
2023-02-14T21:04:38.862Z,12.73
2023-02-14T21:07:31.067Z,21.00
2023-02-14T21:10:16.297Z,19.40
2023-02-14T21:13:01.668Z,18.88
2023-02-14T21:15:47.078Z,16.27
2023-02-14T21:18:33.718Z,17.60
2023-02-14T21:21:25.774Z,16.67
2023-02-14T21:24:15.895Z,15.20
2023-02-14T21:27:01.780Z,16.98
2023-02-14T21:29:46.915Z,15.45
2023-02-14T21:32:32.322Z,15.88
2023-02-14T21:35:17.717Z,19.52
2023-02-14T21:38:03.199Z,14.80
2023-02-14T21:40:48.550Z,17.35
2023-02-14T21:43:35.672Z,16.13
2023-02-14T21:46:31.073Z,15.70
2023-02-14T21:49:34.983Z,17.13
2023-02-14T21:52:20.421Z,17.25
2023-02-14T21:55:06.782Z,18.10
2023-02-14T21:57:52.107Z,17.17
2023-02-14T22:00:37.552Z,19.08
2023-02-14T22:03:23.417Z,15.43
2023-02-14T22:06:10.195Z,14.13
2023-02-14T22:08:59.111Z,17.63
2023-02-14T22:11:44.859Z,16.08
2023-02-14T22:14:30.607Z,18.00
2023-02-14T22:17:15.745Z,16.65
2023-02-14T22:20:01.354Z,23.77
2023-02-14T22:22:46.862Z,18.60
2023-02-14T22:25:32.135Z,16.20
2023-02-14T22:28:17.500Z,18.45
2023-02-14T22:31:03.341Z,18.73
2023-02-14T22:33:49.596Z,18.42
2023-02-14T22:36:35.238Z,24.65
2023-02-14T22:39:20.427Z,17.33
2023-02-14T22:42:06.827Z,25.05
2023-02-14T22:44:51.837Z,22.25
2023-02-14T22:47:37.187Z,19.02
2023-02-14T22:50:22.451Z,19.75
2023-02-14T22:53:08.006Z,20.10
2023-02-14T22:55:53.329Z,19.88
2023-02-14T22:58:39.189Z,16.75
2023-02-14T23:01:26.208Z,21.40
2023-02-14T23:04:11.609Z,20.35
2023-02-14T23:06:56.692Z,18.38
2023-02-14T23:09:42.170Z,18.35
2023-02-14T23:12:46.191Z,18.30
2023-02-14T23:15:49.995Z,16.60
2023-02-14T23:18:53.983Z,18.13
2023-02-14T23:21:57.136Z,17.38
2023-02-14T23:27:39.247Z,15.05
2023-02-14T23:30:24.498Z,16.58
2023-02-14T23:33:09.950Z,14.70
2023-02-14T23:35:55.350Z,15.05
2023-02-14T23:38:40.688Z,16.30
2023-02-14T23:41:44.668Z,13.45
2023-02-14T23:44:30.723Z,14.55
2023-02-14T23:47:18.959Z,15.45
2023-02-14T23:50:04.004Z,16.60
2023-02-14T23:52:49.412Z,14.98
2023-02-14T23:55:34.943Z,13.48
2023-02-14T23:58:20.206Z,14.75
